sensor_id;sensor_type;location;lat;lon;timestamp;P1;durP1;ratioP1;P2;durP2;ratioP2
28828;SDS011;15966;51.540;11.870;2023-06-14T00:00:51;1.83;;;1.67;;
28828;SDS011;15966;51.540;11.870;2023-06-14T00:03:18;2.35;;;1.73;;
28828;SDS011;15966;51.540;11.870;2023-06-14T00:05:47;3.13;;;2.03;;
28828;SDS011;15966;51.540;11.870;2023-06-14T00:08:13;1.67;;;1.58;;
28828;SDS011;15966;51.540;11.870;2023-06-14T00:10:40;3.90;;;1.85;;
28828;SDS011;15966;51.540;11.870;2023-06-14T00:13:09;1.60;;;1.42;;
28828;SDS011;15966;51.540;11.870;2023-06-14T00:15:35;4.55;;;2.08;;
28828;SDS011;15966;51.540;11.870;2023-06-14T00:18:02;3.65;;;2.20;;
28828;SDS011;15966;51.540;11.870;2023-06-14T00:20:28;1.85;;;1.70;;
28828;SDS011;15966;51.540;11.870;2023-06-14T00:22:55;3.08;;;2.00;;
28828;SDS011;15966;51.540;11.870;2023-06-14T00:25:22;2.65;;;1.90;;
28828;SDS011;15966;51.540;11.870;2023-06-14T00:27:52;2.80;;;2.20;;
28828;SDS011;15966;51.540;11.870;2023-06-14T00:30:19;2.47;;;1.67;;
28828;SDS011;15966;51.540;11.870;2023-06-14T00:32:45;3.80;;;2.33;;
28828;SDS011;15966;51.540;11.870;2023-06-14T00:35:11;2.17;;;1.85;;
28828;SDS011;15966;51.540;11.870;2023-06-14T00:37:37;3.97;;;1.80;;
28828;SDS011;15966;51.540;11.870;2023-06-14T00:40:04;1.65;;;1.55;;
28828;SDS011;15966;51.540;11.870;2023-06-14T00:42:31;3.43;;;2.10;;
28828;SDS011;15966;51.540;11.870;2023-06-14T00:44:57;2.50;;;1.92;;
28828;SDS011;15966;51.540;11.870;2023-06-14T00:47:24;4.47;;;1.77;;
28828;SDS011;15966;51.540;11.870;2023-06-14T00:49:51;3.22;;;1.52;;
28828;SDS011;15966;51.540;11.870;2023-06-14T00:52:18;6.55;;;2.00;;
28828;SDS011;15966;51.540;11.870;2023-06-14T00:54:45;2.03;;;1.80;;
28828;SDS011;15966;51.540;11.870;2023-06-14T00:57:12;2.58;;;2.28;;
28828;SDS011;15966;51.540;11.870;2023-06-14T00:59:42;2.00;;;1.90;;
28828;SDS011;15966;51.540;11.870;2023-06-14T01:02:09;2.40;;;1.55;;
28828;SDS011;15966;51.540;11.870;2023-06-14T01:04:35;3.17;;;2.30;;
28828;SDS011;15966;51.540;11.870;2023-06-14T01:07:03;3.83;;;1.85;;
28828;SDS011;15966;51.540;11.870;2023-06-14T01:15:20;2.58;;;2.20;;
28828;SDS011;15966;51.540;11.870;2023-06-14T01:17:48;5.15;;;2.85;;
28828;SDS011;15966;51.540;11.870;2023-06-14T01:20:16;3.63;;;2.10;;
28828;SDS011;15966;51.540;11.870;2023-06-14T01:22:54;5.05;;;2.00;;
28828;SDS011;15966;51.540;11.870;2023-06-14T01:25:20;6.38;;;2.63;;
28828;SDS011;15966;51.540;11.870;2023-06-14T01:27:57;6.53;;;2.15;;
28828;SDS011;15966;51.540;11.870;2023-06-14T01:30:25;3.67;;;2.85;;
28828;SDS011;15966;51.540;11.870;2023-06-14T01:32:52;5.82;;;2.42;;
28828;SDS011;15966;51.540;11.870;2023-06-14T01:37:46;3.95;;;2.90;;
28828;SDS011;15966;51.540;11.870;2023-06-14T01:40:13;5.97;;;2.17;;
28828;SDS011;15966;51.540;11.870;2023-06-14T01:42:40;2.42;;;2.22;;
28828;SDS011;15966;51.540;11.870;2023-06-14T01:45:07;3.65;;;2.17;;
28828;SDS011;15966;51.540;11.870;2023-06-14T01:47:35;2.50;;;1.85;;
28828;SDS011;15966;51.540;11.870;2023-06-14T01:50:01;2.70;;;2.13;;
28828;SDS011;15966;51.540;11.870;2023-06-14T01:52:28;2.00;;;1.90;;
28828;SDS011;15966;51.540;11.870;2023-06-14T01:54:54;2.80;;;2.00;;
28828;SDS011;15966;51.540;11.870;2023-06-14T01:57:20;2.03;;;1.80;;
28828;SDS011;15966;51.540;11.870;2023-06-14T01:59:47;4.60;;;2.28;;
28828;SDS011;15966;51.540;11.870;2023-06-14T02:04:40;3.30;;;2.38;;
28828;SDS011;15966;51.540;11.870;2023-06-14T02:07:06;12.40;;;2.47;;
28828;SDS011;15966;51.540;11.870;2023-06-14T02:09:33;4.20;;;2.58;;
28828;SDS011;15966;51.540;11.870;2023-06-14T02:11:59;2.38;;;1.90;;
28828;SDS011;15966;51.540;11.870;2023-06-14T02:14:26;2.75;;;2.50;;
28828;SDS011;15966;51.540;11.870;2023-06-14T02:16:52;4.22;;;2.20;;
28828;SDS011;15966;51.540;11.870;2023-06-14T02:19:19;2.33;;;2.13;;
28828;SDS011;15966;51.540;11.870;2023-06-14T02:21:45;4.15;;;1.92;;
28828;SDS011;15966;51.540;11.870;2023-06-14T02:24:12;3.90;;;2.17;;
28828;SDS011;15966;51.540;11.870;2023-06-14T02:26:38;2.95;;;2.25;;
28828;SDS011;15966;51.540;11.870;2023-06-14T02:31:34;3.25;;;2.22;;
28828;SDS011;15966;51.540;11.870;2023-06-14T02:34:01;2.27;;;1.83;;
28828;SDS011;15966;51.540;11.870;2023-06-14T02:36:27;3.80;;;2.45;;
28828;SDS011;15966;51.540;11.870;2023-06-14T02:38:56;3.33;;;1.98;;
28828;SDS011;15966;51.540;11.870;2023-06-14T02:41:23;2.30;;;2.10;;
28828;SDS011;15966;51.540;11.870;2023-06-14T02:43:49;2.10;;;1.90;;
28828;SDS011;15966;51.540;11.870;2023-06-14T02:46:15;3.55;;;2.85;;
28828;SDS011;15966;51.540;11.870;2023-06-14T02:48:41;2.45;;;2.25;;
28828;SDS011;15966;51.540;11.870;2023-06-14T02:51:07;2.78;;;2.30;;
28828;SDS011;15966;51.540;11.870;2023-06-14T02:53:34;3.85;;;2.83;;
28828;SDS011;15966;51.540;11.870;2023-06-14T02:56:01;3.53;;;2.90;;
28828;SDS011;15966;51.540;11.870;2023-06-14T02:58:29;2.50;;;2.28;;
28828;SDS011;15966;51.540;11.870;2023-06-14T03:00:55;1.73;;;1.63;;
28828;SDS011;15966;51.540;11.870;2023-06-14T03:03:21;2.63;;;2.25;;
28828;SDS011;15966;51.540;11.870;2023-06-14T03:05:50;2.35;;;2.15;;
28828;SDS011;15966;51.540;11.870;2023-06-14T03:08:17;4.30;;;2.33;;
28828;SDS011;15966;51.540;11.870;2023-06-14T03:10:47;2.97;;;2.15;;
28828;SDS011;15966;51.540;11.870;2023-06-14T03:13:14;3.92;;;2.28;;
28828;SDS011;15966;51.540;11.870;2023-06-14T03:15:46;3.30;;;2.10;;
28828;SDS011;15966;51.540;11.870;2023-06-14T03:18:12;7.22;;;2.90;;
28828;SDS011;15966;51.540;11.870;2023-06-14T03:20:39;4.68;;;2.35;;
28828;SDS011;15966;51.540;11.870;2023-06-14T03:23:06;2.58;;;2.03;;
28828;SDS011;15966;51.540;11.870;2023-06-14T03:25:32;3.17;;;1.90;;
28828;SDS011;15966;51.540;11.870;2023-06-14T03:28:00;2.67;;;1.92;;
28828;SDS011;15966;51.540;11.870;2023-06-14T03:30:27;4.65;;;2.78;;
28828;SDS011;15966;51.540;11.870;2023-06-14T03:32:54;2.47;;;2.10;;
28828;SDS011;15966;51.540;11.870;2023-06-14T03:35:21;4.07;;;2.42;;
28828;SDS011;15966;51.540;11.870;2023-06-14T03:37:47;2.80;;;2.10;;
28828;SDS011;15966;51.540;11.870;2023-06-14T03:40:15;3.15;;;2.30;;
28828;SDS011;15966;51.540;11.870;2023-06-14T03:42:42;3.05;;;2.40;;
28828;SDS011;15966;51.540;11.870;2023-06-14T03:45:08;3.13;;;2.42;;
28828;SDS011;15966;51.540;11.870;2023-06-14T03:47:35;3.85;;;2.10;;
28828;SDS011;15966;51.540;11.870;2023-06-14T03:50:02;2.33;;;2.13;;
28828;SDS011;15966;51.540;11.870;2023-06-14T03:52:28;3.13;;;2.65;;
28828;SDS011;15966;51.540;11.870;2023-06-14T03:54:54;3.80;;;2.40;;
28828;SDS011;15966;51.540;11.870;2023-06-14T03:57:21;4.18;;;2.60;;
28828;SDS011;15966;51.540;11.870;2023-06-14T03:59:48;4.18;;;2.70;;
28828;SDS011;15966;51.540;11.870;2023-06-14T04:02:14;3.63;;;2.40;;
28828;SDS011;15966;51.540;11.870;2023-06-14T04:04:41;2.92;;;2.10;;
28828;SDS011;15966;51.540;11.870;2023-06-14T04:07:09;2.67;;;2.20;;
28828;SDS011;15966;51.540;11.870;2023-06-14T04:09:36;3.25;;;2.95;;
28828;SDS011;15966;51.540;11.870;2023-06-14T04:12:03;3.85;;;2.38;;
28828;SDS011;15966;51.540;11.870;2023-06-14T04:14:30;8.63;;;2.58;;
28828;SDS011;15966;51.540;11.870;2023-06-14T04:16:57;2.35;;;2.15;;
28828;SDS011;15966;51.540;11.870;2023-06-14T04:19:24;3.80;;;2.75;;
28828;SDS011;15966;51.540;11.870;2023-06-14T04:21:50;6.43;;;3.63;;
28828;SDS011;15966;51.540;11.870;2023-06-14T04:24:16;3.33;;;2.55;;
28828;SDS011;15966;51.540;11.870;2023-06-14T04:26:42;3.33;;;2.97;;
28828;SDS011;15966;51.540;11.870;2023-06-14T04:29:13;3.53;;;3.22;;
28828;SDS011;15966;51.540;11.870;2023-06-14T04:31:41;3.90;;;3.28;;
28828;SDS011;15966;51.540;11.870;2023-06-14T04:34:10;4.35;;;3.28;;
28828;SDS011;15966;51.540;11.870;2023-06-14T04:36:40;3.83;;;3.42;;
28828;SDS011;15966;51.540;11.870;2023-06-14T04:39:13;6.00;;;3.85;;
28828;SDS011;15966;51.540;11.870;2023-06-14T04:41:40;5.47;;;3.90;;
28828;SDS011;15966;51.540;11.870;2023-06-14T04:44:06;4.30;;;3.90;;
28828;SDS011;15966;51.540;11.870;2023-06-14T04:46:34;3.92;;;3.55;;
28828;SDS011;15966;51.540;11.870;2023-06-14T04:49:13;4.40;;;3.97;;
28828;SDS011;15966;51.540;11.870;2023-06-14T04:51:40;5.95;;;4.05;;
28828;SDS011;15966;51.540;11.870;2023-06-14T04:54:07;4.43;;;4.03;;
28828;SDS011;15966;51.540;11.870;2023-06-14T04:56:39;7.65;;;4.95;;
28828;SDS011;15966;51.540;11.870;2023-06-14T04:59:05;7.82;;;3.38;;
28828;SDS011;15966;51.540;11.870;2023-06-14T05:01:32;4.00;;;3.67;;
28828;SDS011;15966;51.540;11.870;2023-06-14T05:03:59;4.53;;;3.70;;
28828;SDS011;15966;51.540;11.870;2023-06-14T05:06:25;4.78;;;3.78;;
28828;SDS011;15966;51.540;11.870;2023-06-14T05:08:52;5.93;;;4.63;;
28828;SDS011;15966;51.540;11.870;2023-06-14T05:11:19;4.95;;;4.18;;
28828;SDS011;15966;51.540;11.870;2023-06-14T05:13:45;4.45;;;3.88;;
28828;SDS011;15966;51.540;11.870;2023-06-14T05:16:12;6.32;;;4.50;;
28828;SDS011;15966;51.540;11.870;2023-06-14T05:18:40;5.10;;;3.75;;
28828;SDS011;15966;51.540;11.870;2023-06-14T05:21:06;5.20;;;4.32;;
28828;SDS011;15966;51.540;11.870;2023-06-14T05:23:33;4.68;;;4.28;;
28828;SDS011;15966;51.540;11.870;2023-06-14T05:25:59;5.60;;;4.45;;
28828;SDS011;15966;51.540;11.870;2023-06-14T05:28:27;6.03;;;4.25;;
28828;SDS011;15966;51.540;11.870;2023-06-14T05:30:53;3.92;;;3.50;;
28828;SDS011;15966;51.540;11.870;2023-06-14T05:33:20;3.95;;;3.55;;
28828;SDS011;15966;51.540;11.870;2023-06-14T05:35:46;4.38;;;3.97;;
28828;SDS011;15966;51.540;11.870;2023-06-14T05:38:12;4.93;;;4.35;;
28828;SDS011;15966;51.540;11.870;2023-06-14T05:40:38;6.75;;;4.07;;
28828;SDS011;15966;51.540;11.870;2023-06-14T05:43:04;5.00;;;4.43;;
28828;SDS011;15966;51.540;11.870;2023-06-14T05:45:30;5.95;;;5.13;;
28828;SDS011;15966;51.540;11.870;2023-06-14T05:47:56;5.00;;;4.28;;
28828;SDS011;15966;51.540;11.870;2023-06-14T05:50:23;5.07;;;4.60;;
28828;SDS011;15966;51.540;11.870;2023-06-14T05:52:49;4.65;;;4.20;;
28828;SDS011;15966;51.540;11.870;2023-06-14T05:55:16;4.70;;;3.95;;
28828;SDS011;15966;51.540;11.870;2023-06-14T05:57:42;4.43;;;4.03;;
28828;SDS011;15966;51.540;11.870;2023-06-14T06:00:08;4.80;;;4.05;;
28828;SDS011;15966;51.540;11.870;2023-06-14T06:02:45;7.00;;;4.65;;
28828;SDS011;15966;51.540;11.870;2023-06-14T06:05:12;3.95;;;3.55;;
28828;SDS011;15966;51.540;11.870;2023-06-14T06:07:40;4.97;;;4.47;;
28828;SDS011;15966;51.540;11.870;2023-06-14T06:10:06;4.78;;;4.22;;
28828;SDS011;15966;51.540;11.870;2023-06-14T06:12:33;4.82;;;4.32;;
28828;SDS011;15966;51.540;11.870;2023-06-14T06:14:59;8.30;;;4.78;;
28828;SDS011;15966;51.540;11.870;2023-06-14T06:17:25;4.75;;;4.13;;
28828;SDS011;15966;51.540;11.870;2023-06-14T06:19:52;6.07;;;4.78;;
28828;SDS011;15966;51.540;11.870;2023-06-14T06:22:18;8.00;;;4.90;;
28828;SDS011;15966;51.540;11.870;2023-06-14T06:24:44;8.15;;;4.45;;
28828;SDS011;15966;51.540;11.870;2023-06-14T06:27:11;4.85;;;4.35;;
28828;SDS011;15966;51.540;11.870;2023-06-14T06:29:37;5.28;;;4.78;;
28828;SDS011;15966;51.540;11.870;2023-06-14T06:32:04;9.15;;;4.20;;
28828;SDS011;15966;51.540;11.870;2023-06-14T06:34:30;4.82;;;4.28;;
28828;SDS011;15966;51.540;11.870;2023-06-14T06:36:56;5.43;;;4.93;;
28828;SDS011;15966;51.540;11.870;2023-06-14T06:39:22;6.38;;;5.07;;
28828;SDS011;15966;51.540;11.870;2023-06-14T06:41:48;5.93;;;4.50;;
28828;SDS011;15966;51.540;11.870;2023-06-14T06:44:14;6.90;;;4.03;;
28828;SDS011;15966;51.540;11.870;2023-06-14T06:46:40;4.10;;;3.78;;
28828;SDS011;15966;51.540;11.870;2023-06-14T06:49:07;4.93;;;4.35;;
28828;SDS011;15966;51.540;11.870;2023-06-14T06:51:40;3.97;;;3.35;;
28828;SDS011;15966;51.540;11.870;2023-06-14T06:54:07;5.45;;;3.90;;
28828;SDS011;15966;51.540;11.870;2023-06-14T06:56:34;6.82;;;4.18;;
28828;SDS011;15966;51.540;11.870;2023-06-14T06:59:00;4.88;;;4.38;;
28828;SDS011;15966;51.540;11.870;2023-06-14T07:01:26;5.15;;;3.95;;
28828;SDS011;15966;51.540;11.870;2023-06-14T07:03:54;4.00;;;3.63;;
28828;SDS011;15966;51.540;11.870;2023-06-14T07:06:20;5.18;;;4.30;;
28828;SDS011;15966;51.540;11.870;2023-06-14T07:08:46;5.88;;;4.10;;
28828;SDS011;15966;51.540;11.870;2023-06-14T07:11:15;4.22;;;3.92;;
28828;SDS011;15966;51.540;11.870;2023-06-14T07:13:41;4.60;;;4.18;;
28828;SDS011;15966;51.540;11.870;2023-06-14T07:16:07;4.05;;;3.67;;
28828;SDS011;15966;51.540;11.870;2023-06-14T07:18:33;6.97;;;4.57;;
28828;SDS011;15966;51.540;11.870;2023-06-14T07:21:00;4.55;;;4.07;;
28828;SDS011;15966;51.540;11.870;2023-06-14T07:23:26;4.28;;;3.75;;
28828;SDS011;15966;51.540;11.870;2023-06-14T07:25:52;3.60;;;3.30;;
28828;SDS011;15966;51.540;11.870;2023-06-14T07:28:18;4.57;;;3.53;;
28828;SDS011;15966;51.540;11.870;2023-06-14T07:30:44;3.55;;;3.25;;
28828;SDS011;15966;51.540;11.870;2023-06-14T07:33:10;4.40;;;2.83;;
28828;SDS011;15966;51.540;11.870;2023-06-14T07:35:37;2.90;;;2.70;;
28828;SDS011;15966;51.540;11.870;2023-06-14T07:38:03;4.32;;;3.20;;
28828;SDS011;15966;51.540;11.870;2023-06-14T07:40:29;5.78;;;3.65;;
28828;SDS011;15966;51.540;11.870;2023-06-14T07:42:55;3.20;;;2.90;;
28828;SDS011;15966;51.540;11.870;2023-06-14T07:45:21;3.50;;;3.00;;
28828;SDS011;15966;51.540;11.870;2023-06-14T07:47:47;3.33;;;2.97;;
28828;SDS011;15966;51.540;11.870;2023-06-14T07:50:13;3.15;;;2.55;;
28828;SDS011;15966;51.540;11.870;2023-06-14T07:52:39;3.70;;;2.88;;
28828;SDS011;15966;51.540;11.870;2023-06-14T07:55:06;4.38;;;3.70;;
28828;SDS011;15966;51.540;11.870;2023-06-14T07:57:32;3.10;;;2.80;;
28828;SDS011;15966;51.540;11.870;2023-06-14T07:59:58;11.50;;;3.60;;
28828;SDS011;15966;51.540;11.870;2023-06-14T08:02:24;7.03;;;2.65;;
28828;SDS011;15966;51.540;11.870;2023-06-14T08:04:50;3.63;;;2.85;;
28828;SDS011;15966;51.540;11.870;2023-06-14T08:07:17;4.25;;;2.95;;
28828;SDS011;15966;51.540;11.870;2023-06-14T08:09:43;5.13;;;2.78;;
28828;SDS011;15966;51.540;11.870;2023-06-14T08:12:09;3.70;;;2.80;;
28828;SDS011;15966;51.540;11.870;2023-06-14T08:14:35;6.43;;;3.05;;
28828;SDS011;15966;51.540;11.870;2023-06-14T08:17:01;5.15;;;3.80;;
28828;SDS011;15966;51.540;11.870;2023-06-14T08:19:28;5.07;;;3.85;;
28828;SDS011;15966;51.540;11.870;2023-06-14T08:21:54;3.83;;;2.70;;
28828;SDS011;15966;51.540;11.870;2023-06-14T08:24:21;3.78;;;3.45;;
28828;SDS011;15966;51.540;11.870;2023-06-14T08:26:52;4.53;;;4.13;;
28828;SDS011;15966;51.540;11.870;2023-06-14T08:29:18;3.50;;;3.20;;
28828;SDS011;15966;51.540;11.870;2023-06-14T08:31:44;3.92;;;3.05;;
28828;SDS011;15966;51.540;11.870;2023-06-14T08:34:11;5.07;;;3.50;;
28828;SDS011;15966;51.540;11.870;2023-06-14T08:36:37;3.60;;;3.22;;
28828;SDS011;15966;51.540;11.870;2023-06-14T08:39:03;4.35;;;3.45;;
28828;SDS011;15966;51.540;11.870;2023-06-14T08:41:30;3.67;;;2.75;;
28828;SDS011;15966;51.540;11.870;2023-06-14T08:43:56;3.38;;;3.08;;
28828;SDS011;15966;51.540;11.870;2023-06-14T08:46:25;3.42;;;2.97;;
28828;SDS011;15966;51.540;11.870;2023-06-14T08:48:52;6.20;;;3.17;;
28828;SDS011;15966;51.540;11.870;2023-06-14T08:51:22;3.90;;;3.05;;
28828;SDS011;15966;51.540;11.870;2023-06-14T08:53:54;3.60;;;2.90;;
28828;SDS011;15966;51.540;11.870;2023-06-14T08:56:22;4.30;;;2.92;;
28828;SDS011;15966;51.540;11.870;2023-06-14T08:58:53;4.38;;;3.47;;
28828;SDS011;15966;51.540;11.870;2023-06-14T09:01:19;2.97;;;2.78;;
28828;SDS011;15966;51.540;11.870;2023-06-14T09:03:46;2.72;;;2.53;;
28828;SDS011;15966;51.540;11.870;2023-06-14T09:06:13;3.50;;;3.03;;
28828;SDS011;15966;51.540;11.870;2023-06-14T09:08:43;2.55;;;2.35;;
28828;SDS011;15966;51.540;11.870;2023-06-14T09:11:13;2.95;;;2.47;;
28828;SDS011;15966;51.540;11.870;2023-06-14T09:13:40;6.80;;;3.45;;
28828;SDS011;15966;51.540;11.870;2023-06-14T09:16:07;3.27;;;2.50;;
28828;SDS011;15966;51.540;11.870;2023-06-14T09:18:37;3.17;;;2.50;;
28828;SDS011;15966;51.540;11.870;2023-06-14T09:21:06;4.13;;;3.05;;
28828;SDS011;15966;51.540;11.870;2023-06-14T09:23:36;5.60;;;2.97;;
28828;SDS011;15966;51.540;11.870;2023-06-14T09:26:12;3.88;;;3.40;;
28828;SDS011;15966;51.540;11.870;2023-06-14T09:28:42;3.17;;;2.90;;
28828;SDS011;15966;51.540;11.870;2023-06-14T09:31:19;3.53;;;3.20;;
28828;SDS011;15966;51.540;11.870;2023-06-14T09:33:46;2.83;;;2.63;;
28828;SDS011;15966;51.540;11.870;2023-06-14T09:36:17;4.63;;;3.00;;
28828;SDS011;15966;51.540;11.870;2023-06-14T09:38:53;2.65;;;2.45;;
28828;SDS011;15966;51.540;11.870;2023-06-14T09:41:19;3.67;;;2.85;;
28828;SDS011;15966;51.540;11.870;2023-06-14T09:43:46;2.65;;;2.45;;
28828;SDS011;15966;51.540;11.870;2023-06-14T09:46:13;3.03;;;2.28;;
28828;SDS011;15966;51.540;11.870;2023-06-14T09:48:39;4.38;;;2.67;;
28828;SDS011;15966;51.540;11.870;2023-06-14T09:51:11;14.90;;;2.83;;
28828;SDS011;15966;51.540;11.870;2023-06-14T09:53:39;2.50;;;2.30;;
28828;SDS011;15966;51.540;11.870;2023-06-14T09:56:06;2.75;;;2.40;;
28828;SDS011;15966;51.540;11.870;2023-06-14T09:58:33;5.68;;;2.92;;
28828;SDS011;15966;51.540;11.870;2023-06-14T10:01:01;2.70;;;2.50;;
28828;SDS011;15966;51.540;11.870;2023-06-14T10:03:28;3.53;;;2.55;;
28828;SDS011;15966;51.540;11.870;2023-06-14T10:05:58;3.25;;;2.63;;
28828;SDS011;15966;51.540;11.870;2023-06-14T10:08:27;3.08;;;2.80;;
28828;SDS011;15966;51.540;11.870;2023-06-14T10:10:55;2.72;;;2.08;;
28828;SDS011;15966;51.540;11.870;2023-06-14T10:13:21;2.25;;;2.05;;
28828;SDS011;15966;51.540;11.870;2023-06-14T10:23:57;9.13;;;2.95;;
28828;SDS011;15966;51.540;11.870;2023-06-14T10:26:28;3.10;;;2.58;;
28828;SDS011;15966;51.540;11.870;2023-06-14T10:31:41;2.63;;;2.43;;
28828;SDS011;15966;51.540;11.870;2023-06-14T10:34:12;5.35;;;2.72;;
28828;SDS011;15966;51.540;11.870;2023-06-14T10:39:46;4.10;;;2.42;;
28828;SDS011;15966;51.540;11.870;2023-06-14T10:42:12;3.92;;;2.17;;
28828;SDS011;15966;51.540;11.870;2023-06-14T10:44:39;2.58;;;2.38;;
28828;SDS011;15966;51.540;11.870;2023-06-14T10:47:27;2.22;;;1.70;;
28828;SDS011;15966;51.540;11.870;2023-06-14T10:52:32;2.85;;;1.95;;
28828;SDS011;15966;51.540;11.870;2023-06-14T10:55:01;4.40;;;2.17;;
28828;SDS011;15966;51.540;11.870;2023-06-14T10:57:31;2.15;;;1.95;;
28828;SDS011;15966;51.540;11.870;2023-06-14T10:59:58;1.75;;;1.65;;
28828;SDS011;15966;51.540;11.870;2023-06-14T11:05:29;4.03;;;2.45;;
28828;SDS011;15966;51.540;11.870;2023-06-14T11:10:41;2.47;;;2.00;;
28828;SDS011;15966;51.540;11.870;2023-06-14T11:13:08;3.00;;;2.40;;
28828;SDS011;15966;51.540;11.870;2023-06-14T11:15:35;4.53;;;2.92;;
28828;SDS011;15966;51.540;11.870;2023-06-14T11:18:05;3.63;;;2.10;;
28828;SDS011;15966;51.540;11.870;2023-06-14T11:20:34;3.15;;;2.63;;
28828;SDS011;15966;51.540;11.870;2023-06-14T11:23:01;2.65;;;2.22;;
28828;SDS011;15966;51.540;11.870;2023-06-14T11:25:28;2.42;;;2.20;;
28828;SDS011;15966;51.540;11.870;2023-06-14T11:27:54;3.28;;;1.98;;
28828;SDS011;15966;51.540;11.870;2023-06-14T11:30:21;5.30;;;3.00;;
28828;SDS011;15966;51.540;11.870;2023-06-14T11:32:48;4.95;;;2.35;;
28828;SDS011;15966;51.540;11.870;2023-06-14T11:35:15;2.28;;;2.08;;
28828;SDS011;15966;51.540;11.870;2023-06-14T11:40:12;2.50;;;2.30;;
28828;SDS011;15966;51.540;11.870;2023-06-14T11:42:40;3.13;;;2.90;;
28828;SDS011;15966;51.540;11.870;2023-06-14T11:45:07;3.22;;;2.72;;
28828;SDS011;15966;51.540;11.870;2023-06-14T11:47:35;5.72;;;2.35;;
28828;SDS011;15966;51.540;11.870;2023-06-14T11:50:02;5.13;;;2.85;;
28828;SDS011;15966;51.540;11.870;2023-06-14T11:52:29;2.58;;;2.38;;
28828;SDS011;15966;51.540;11.870;2023-06-14T11:54:56;2.78;;;2.38;;
28828;SDS011;15966;51.540;11.870;2023-06-14T11:57:23;2.75;;;2.03;;
28828;SDS011;15966;51.540;11.870;2023-06-14T11:59:50;3.13;;;2.85;;
28828;SDS011;15966;51.540;11.870;2023-06-14T12:02:16;3.10;;;2.83;;
28828;SDS011;15966;51.540;11.870;2023-06-14T12:04:43;3.00;;;2.80;;
28828;SDS011;15966;51.540;11.870;2023-06-14T12:07:12;5.97;;;2.80;;
28828;SDS011;15966;51.540;11.870;2023-06-14T12:10:03;4.13;;;2.63;;
28828;SDS011;15966;51.540;11.870;2023-06-14T12:12:34;2.92;;;2.72;;
28828;SDS011;15966;51.540;11.870;2023-06-14T12:15:02;3.78;;;2.90;;
28828;SDS011;15966;51.540;11.870;2023-06-14T12:17:33;4.38;;;2.50;;
28828;SDS011;15966;51.540;11.870;2023-06-14T12:20:08;4.32;;;2.95;;
28828;SDS011;15966;51.540;11.870;2023-06-14T12:22:54;5.72;;;3.00;;
28828;SDS011;15966;51.540;11.870;2023-06-14T12:27:58;3.10;;;2.83;;
28828;SDS011;15966;51.540;11.870;2023-06-14T12:30:25;5.35;;;3.13;;
28828;SDS011;15966;51.540;11.870;2023-06-14T12:32:51;4.77;;;2.87;;
28828;SDS011;15966;51.540;11.870;2023-06-14T12:35:17;2.83;;;2.55;;
28828;SDS011;15966;51.540;11.870;2023-06-14T12:37:44;2.60;;;2.40;;
28828;SDS011;15966;51.540;11.870;2023-06-14T12:40:10;3.67;;;2.97;;
28828;SDS011;15966;51.540;11.870;2023-06-14T12:42:37;5.88;;;3.13;;
28828;SDS011;15966;51.540;11.870;2023-06-14T12:45:03;3.10;;;2.65;;
28828;SDS011;15966;51.540;11.870;2023-06-14T12:47:30;4.68;;;3.17;;
28828;SDS011;15966;51.540;11.870;2023-06-14T12:49:56;4.93;;;3.00;;
28828;SDS011;15966;51.540;11.870;2023-06-14T12:52:22;4.18;;;2.90;;
28828;SDS011;15966;51.540;11.870;2023-06-14T12:54:48;5.53;;;2.90;;
28828;SDS011;15966;51.540;11.870;2023-06-14T12:57:14;4.15;;;2.72;;
28828;SDS011;15966;51.540;11.870;2023-06-14T12:59:40;4.03;;;3.10;;
28828;SDS011;15966;51.540;11.870;2023-06-14T13:02:13;3.92;;;2.65;;
28828;SDS011;15966;51.540;11.870;2023-06-14T13:04:43;3.45;;;3.15;;
28828;SDS011;15966;51.540;11.870;2023-06-14T13:07:09;3.00;;;2.73;;
28828;SDS011;15966;51.540;11.870;2023-06-14T13:09:36;5.97;;;3.47;;
28828;SDS011;15966;51.540;11.870;2023-06-14T13:12:02;2.67;;;2.40;;
28828;SDS011;15966;51.540;11.870;2023-06-14T13:14:28;2.70;;;2.50;;
28828;SDS011;15966;51.540;11.870;2023-06-14T13:16:55;4.45;;;3.05;;
28828;SDS011;15966;51.540;11.870;2023-06-14T13:19:21;2.60;;;2.40;;
28828;SDS011;15966;51.540;11.870;2023-06-14T13:21:47;3.38;;;2.35;;
28828;SDS011;15966;51.540;11.870;2023-06-14T13:24:13;4.30;;;2.53;;
28828;SDS011;15966;51.540;11.870;2023-06-14T13:26:40;3.13;;;2.30;;
28828;SDS011;15966;51.540;11.870;2023-06-14T13:29:06;3.92;;;2.47;;
28828;SDS011;15966;51.540;11.870;2023-06-14T13:31:32;3.00;;;2.72;;
28828;SDS011;15966;51.540;11.870;2023-06-14T13:33:58;4.00;;;2.83;;
28828;SDS011;15966;51.540;11.870;2023-06-14T13:36:24;3.70;;;2.67;;
28828;SDS011;15966;51.540;11.870;2023-06-14T13:38:50;4.45;;;3.10;;
28828;SDS011;15966;51.540;11.870;2023-06-14T13:41:17;3.83;;;2.67;;
28828;SDS011;15966;51.540;11.870;2023-06-14T13:43:44;6.55;;;2.92;;
28828;SDS011;15966;51.540;11.870;2023-06-14T13:46:10;6.32;;;2.90;;
28828;SDS011;15966;51.540;11.870;2023-06-14T13:48:36;6.10;;;3.03;;
28828;SDS011;15966;51.540;11.870;2023-06-14T13:51:02;3.63;;;2.58;;
28828;SDS011;15966;51.540;11.870;2023-06-14T13:53:29;3.30;;;3.00;;
28828;SDS011;15966;51.540;11.870;2023-06-14T13:55:55;3.40;;;3.10;;
28828;SDS011;15966;51.540;11.870;2023-06-14T13:58:21;3.47;;;3.17;;
28828;SDS011;15966;51.540;11.870;2023-06-14T14:00:49;3.92;;;2.78;;
28828;SDS011;15966;51.540;11.870;2023-06-14T14:03:15;2.40;;;2.20;;
28828;SDS011;15966;51.540;11.870;2023-06-14T14:05:41;4.28;;;2.20;;
28828;SDS011;15966;51.540;11.870;2023-06-14T14:08:07;3.78;;;2.50;;
28828;SDS011;15966;51.540;11.870;2023-06-14T14:10:33;3.40;;;2.53;;
28828;SDS011;15966;51.540;11.870;2023-06-14T14:12:59;4.70;;;2.58;;
28828;SDS011;15966;51.540;11.870;2023-06-14T14:15:26;3.97;;;2.80;;
28828;SDS011;15966;51.540;11.870;2023-06-14T14:17:53;6.15;;;3.05;;
28828;SDS011;15966;51.540;11.870;2023-06-14T14:20:22;4.43;;;2.80;;
28828;SDS011;15966;51.540;11.870;2023-06-14T14:22:48;4.93;;;2.97;;
28828;SDS011;15966;51.540;11.870;2023-06-14T14:25:14;4.63;;;2.63;;
28828;SDS011;15966;51.540;11.870;2023-06-14T14:27:40;3.65;;;2.90;;
28828;SDS011;15966;51.540;11.870;2023-06-14T14:30:06;4.82;;;2.40;;
28828;SDS011;15966;51.540;11.870;2023-06-14T14:32:33;5.67;;;2.93;;
28828;SDS011;15966;51.540;11.870;2023-06-14T14:34:59;2.88;;;2.67;;
28828;SDS011;15966;51.540;11.870;2023-06-14T14:37:25;3.15;;;2.50;;
28828;SDS011;15966;51.540;11.870;2023-06-14T14:39:51;4.22;;;2.47;;
28828;SDS011;15966;51.540;11.870;2023-06-14T14:42:17;6.85;;;2.60;;
28828;SDS011;15966;51.540;11.870;2023-06-14T14:44:44;13.18;;;2.80;;
28828;SDS011;15966;51.540;11.870;2023-06-14T14:47:10;2.88;;;2.67;;
28828;SDS011;15966;51.540;11.870;2023-06-14T14:49:36;2.78;;;2.58;;
28828;SDS011;15966;51.540;11.870;2023-06-14T14:52:02;3.40;;;2.70;;
28828;SDS011;15966;51.540;11.870;2023-06-14T14:54:29;4.30;;;3.03;;
28828;SDS011;15966;51.540;11.870;2023-06-14T14:56:55;4.45;;;2.17;;
28828;SDS011;15966;51.540;11.870;2023-06-14T14:59:21;4.97;;;2.70;;
28828;SDS011;15966;51.540;11.870;2023-06-14T15:01:47;7.13;;;2.97;;
28828;SDS011;15966;51.540;11.870;2023-06-14T15:04:13;3.05;;;2.75;;
28828;SDS011;15966;51.540;11.870;2023-06-14T15:06:39;3.58;;;2.67;;
28828;SDS011;15966;51.540;11.870;2023-06-14T15:09:06;6.72;;;2.50;;
28828;SDS011;15966;51.540;11.870;2023-06-14T15:11:32;4.22;;;2.67;;
28828;SDS011;15966;51.540;11.870;2023-06-14T15:13:58;3.65;;;2.58;;